createdAt,value
2023-01-04T00:01:01.577Z,2.53
2023-01-04T00:03:29.321Z,1.90
2023-01-04T00:05:58.631Z,1.93
2023-01-04T00:08:26.495Z,1.57
2023-01-04T00:10:54.112Z,1.47
2023-01-04T00:13:21.692Z,1.87
2023-01-04T00:15:49.617Z,1.40
2023-01-04T00:18:17.153Z,1.47
2023-01-04T00:20:44.726Z,1.67
2023-01-04T00:23:12.178Z,2.30
2023-01-04T00:25:39.850Z,1.30
2023-01-04T00:28:07.542Z,1.50
2023-01-04T00:30:35.090Z,2.10
2023-01-04T00:33:02.586Z,1.63
2023-01-04T00:35:45.329Z,1.60
2023-01-04T00:38:13.796Z,1.87
2023-01-04T00:40:41.261Z,1.57
2023-01-04T00:43:08.777Z,1.73
2023-01-04T00:45:36.301Z,1.40
2023-01-04T00:48:04.020Z,1.60
2023-01-04T00:50:31.533Z,1.70
2023-01-04T00:52:59.115Z,1.53
2023-01-04T00:55:26.637Z,1.57
2023-01-04T00:57:54.411Z,1.70
2023-01-04T01:00:21.978Z,1.57
2023-01-04T01:02:49.755Z,1.40
2023-01-04T01:05:17.521Z,1.50
2023-01-04T01:07:45.063Z,1.87
2023-01-04T01:10:12.641Z,1.83
2023-01-04T01:12:40.210Z,1.93
2023-01-04T01:15:07.987Z,1.70
2023-01-04T01:17:35.808Z,1.97
2023-01-04T01:20:04.644Z,1.87
2023-01-04T01:22:32.979Z,1.67
2023-01-04T01:25:00.560Z,1.50
2023-01-04T01:27:29.123Z,1.60
2023-01-04T01:29:56.639Z,1.87
2023-01-04T01:32:24.689Z,1.70
2023-01-04T01:34:52.183Z,2.03
2023-01-04T01:37:19.729Z,1.70
2023-01-04T01:39:47.260Z,2.00
2023-01-04T01:42:21.203Z,1.67
2023-01-04T01:44:48.731Z,1.60
2023-01-04T01:47:18.433Z,1.27
2023-01-04T01:49:47.443Z,1.70
2023-01-04T01:52:18.120Z,1.53
2023-01-04T01:54:47.109Z,1.73
2023-01-04T01:57:17.635Z,1.73
2023-01-04T01:59:46.571Z,1.70
2023-01-04T02:02:14.323Z,1.50
2023-01-04T02:04:43.828Z,1.90
2023-01-04T02:07:12.732Z,1.67
2023-01-04T02:09:40.508Z,1.70
2023-01-04T02:12:11.702Z,1.40
2023-01-04T02:14:39.337Z,2.00
2023-01-04T02:17:06.805Z,1.80
2023-01-04T02:19:49.413Z,2.13
2023-01-04T02:22:25.979Z,1.50
2023-01-04T02:25:12.181Z,1.40
2023-01-04T02:27:55.051Z,1.53
2023-01-04T02:30:31.886Z,1.33
2023-01-04T02:32:59.403Z,1.77
2023-01-04T02:35:41.841Z,1.63
2023-01-04T02:38:23.037Z,1.47
2023-01-04T02:40:53.689Z,1.37
2023-01-04T02:43:27.091Z,1.30
2023-01-04T02:46:03.642Z,1.33
2023-01-04T02:48:40.708Z,1.33
2023-01-04T02:51:25.324Z,1.17
2023-01-04T02:53:52.995Z,1.70
2023-01-04T02:56:24.322Z,1.07
2023-01-04T02:58:57.575Z,1.60
2023-01-04T03:02:00.515Z,1.80
2023-01-04T03:04:40.541Z,1.30
2023-01-04T03:07:08.064Z,0.90
2023-01-04T03:09:37.026Z,1.10
2023-01-04T03:12:17.134Z,0.90
2023-01-04T03:14:48.601Z,1.10
2023-01-04T03:17:18.055Z,0.90
2023-01-04T03:19:46.335Z,0.90
2023-01-04T03:22:14.771Z,1.10
2023-01-04T03:24:42.265Z,1.00
2023-01-04T03:27:09.856Z,0.87
2023-01-04T03:30:06.914Z,0.90
2023-01-04T03:32:40.607Z,0.90
2023-01-04T03:35:08.288Z,0.90
2023-01-04T03:37:48.043Z,0.70
2023-01-04T03:40:21.747Z,0.80
2023-01-04T03:42:52.348Z,0.70
2023-01-04T03:45:21.953Z,0.80
2023-01-04T03:48:05.012Z,1.03
2023-01-04T03:50:37.273Z,0.87
2023-01-04T03:53:06.350Z,0.67
2023-01-04T03:55:34.971Z,0.70
2023-01-04T03:58:02.527Z,0.80
2023-01-04T04:00:30.339Z,1.07
2023-01-04T04:02:58.387Z,0.80
2023-01-04T04:05:25.943Z,0.70
2023-01-04T04:07:53.537Z,0.70
2023-01-04T04:10:28.275Z,0.90
2023-01-04T04:12:55.846Z,0.73
2023-01-04T04:15:23.348Z,0.60
2023-01-04T04:17:53.911Z,0.60
2023-01-04T04:20:21.487Z,0.90
2023-01-04T04:22:48.963Z,0.60
2023-01-04T04:25:16.664Z,0.63
2023-01-04T04:27:44.229Z,0.70
2023-01-04T04:30:12.058Z,0.80
2023-01-04T04:32:39.575Z,0.70
2023-01-04T04:35:07.256Z,0.70
2023-01-04T04:37:35.029Z,0.67
2023-01-04T04:40:06.354Z,0.70
2023-01-04T04:42:33.920Z,0.90
2023-01-04T04:45:01.425Z,0.70
2023-01-04T04:47:28.982Z,0.77
2023-01-04T04:49:56.508Z,0.67
2023-01-04T04:52:24.108Z,0.70
2023-01-04T04:54:51.610Z,0.57
2023-01-04T04:57:19.160Z,0.87
2023-01-04T04:59:46.682Z,0.80
2023-01-04T05:02:14.332Z,1.00
2023-01-04T05:04:41.994Z,0.70
2023-01-04T05:07:12.652Z,0.70
2023-01-04T05:09:40.482Z,0.60
2023-01-04T05:12:07.992Z,0.63
2023-01-04T05:14:35.583Z,0.60
2023-01-04T05:17:03.280Z,0.70
2023-01-04T05:19:30.971Z,0.60
2023-01-04T05:21:58.489Z,0.90
2023-01-04T05:24:26.100Z,0.63
2023-01-04T05:26:53.593Z,0.60
2023-01-04T05:29:21.157Z,0.90
2023-01-04T05:31:48.753Z,0.60
2023-01-04T05:34:22.020Z,0.70
2023-01-04T05:36:49.920Z,0.60
2023-01-04T05:39:17.432Z,0.63
2023-01-04T05:41:45.021Z,0.70
2023-01-04T05:44:12.540Z,0.70
2023-01-04T05:46:40.148Z,0.80
2023-01-04T05:49:07.703Z,0.70
2023-01-04T05:51:35.302Z,0.70
2023-01-04T05:54:02.795Z,0.60
2023-01-04T05:56:30.371Z,0.60
2023-01-04T05:58:57.875Z,0.70
2023-01-04T06:01:25.427Z,0.80
2023-01-04T06:03:53.055Z,0.70
2023-01-04T06:06:20.728Z,0.70
2023-01-04T06:08:48.316Z,0.70
2023-01-04T06:11:15.880Z,0.80
2023-01-04T06:13:43.433Z,0.50
2023-01-04T06:16:10.961Z,0.93
2023-01-04T06:18:38.531Z,0.60
2023-01-04T06:21:06.016Z,0.70
2023-01-04T06:23:33.624Z,0.60
2023-01-04T06:26:01.194Z,0.60
2023-01-04T06:28:35.559Z,0.70
2023-01-04T06:31:08.708Z,0.77
2023-01-04T06:33:36.461Z,0.90
2023-01-04T06:36:04.120Z,0.60
2023-01-04T06:38:31.925Z,0.50
2023-01-04T06:40:59.587Z,0.67
2023-01-04T06:43:27.128Z,0.60
2023-01-04T06:45:54.708Z,1.10
2023-01-04T06:48:22.355Z,0.70
2023-01-04T06:50:49.972Z,0.73
2023-01-04T06:53:17.526Z,0.70
2023-01-04T06:55:45.706Z,0.70
2023-01-04T06:58:13.224Z,0.60
2023-01-04T07:00:40.921Z,0.80
2023-01-04T07:03:13.727Z,0.90
2023-01-04T07:05:43.732Z,0.60
2023-01-04T07:08:11.740Z,0.70
2023-01-04T07:10:39.611Z,0.60
2023-01-04T07:13:07.558Z,0.67
2023-01-04T07:15:38.454Z,0.67
2023-01-04T07:18:08.588Z,0.60
2023-01-04T07:20:36.645Z,0.67
2023-01-04T07:23:04.452Z,0.70
2023-01-04T07:25:32.056Z,0.70
2023-01-04T07:27:59.690Z,0.93
2023-01-04T07:30:27.182Z,0.77
2023-01-04T07:32:55.416Z,0.80
2023-01-04T07:35:23.433Z,0.80
2023-01-04T07:37:57.826Z,0.60
2023-01-04T07:40:26.939Z,0.60
2023-01-04T07:42:55.091Z,0.60
2023-01-04T07:45:23.024Z,1.00
2023-01-04T07:47:50.649Z,0.80
2023-01-04T07:50:18.380Z,0.63
2023-01-04T07:52:45.849Z,0.60
2023-01-04T07:55:13.499Z,0.60
2023-01-04T07:57:41.050Z,0.90
2023-01-04T08:00:09.000Z,0.70
2023-01-04T08:02:36.585Z,0.50
2023-01-04T08:05:04.378Z,0.63
2023-01-04T08:07:31.904Z,0.60
2023-01-04T08:09:59.407Z,0.80
2023-01-04T08:12:26.881Z,0.70
2023-01-04T08:14:54.441Z,0.70
2023-01-04T08:17:21.887Z,0.87
2023-01-04T08:19:49.495Z,1.00
2023-01-04T08:22:17.112Z,0.80
2023-01-04T08:24:44.663Z,0.93
2023-01-04T08:27:12.200Z,0.90
2023-01-04T08:29:39.777Z,0.87
2023-01-04T08:32:07.250Z,0.70
2023-01-04T08:34:34.880Z,0.70
2023-01-04T08:37:02.459Z,0.70
2023-01-04T08:39:30.096Z,0.70
2023-01-04T08:42:02.586Z,1.00
2023-01-04T08:44:35.378Z,0.80
2023-01-04T08:47:03.069Z,0.70
2023-01-04T08:49:30.767Z,0.90
2023-01-04T08:51:58.307Z,0.70
2023-01-04T08:54:25.824Z,0.80
2023-01-04T08:56:53.310Z,1.10
2023-01-04T08:59:20.885Z,0.90
2023-01-04T09:01:48.526Z,0.87
2023-01-04T09:04:16.261Z,0.87
2023-01-04T09:06:43.886Z,0.70
2023-01-04T09:09:11.511Z,0.90
2023-01-04T09:11:39.441Z,1.00
2023-01-04T09:14:08.752Z,0.80
2023-01-04T09:16:40.879Z,0.80
2023-01-04T09:19:08.785Z,1.10
2023-01-04T09:21:36.741Z,1.17
2023-01-04T09:24:06.560Z,0.60
2023-01-04T09:26:34.266Z,0.80
2023-01-04T09:29:01.859Z,1.00
2023-01-04T09:31:29.635Z,0.80
2023-01-04T09:34:16.146Z,0.70
2023-01-04T09:36:45.908Z,0.93
2023-01-04T09:39:21.787Z,1.00
2023-01-04T09:41:55.089Z,0.83
2023-01-04T09:47:34.430Z,0.90
2023-01-04T09:50:05.003Z,1.30
2023-01-04T09:52:41.552Z,0.80
2023-01-04T09:55:39.292Z,0.90
2023-01-04T09:58:28.895Z,0.80
2023-01-04T10:01:22.183Z,0.90
2023-01-04T10:04:02.717Z,1.07
2023-01-04T10:06:30.409Z,1.20
2023-01-04T10:09:02.093Z,0.97
2023-01-04T10:11:42.089Z,0.70
2023-01-04T10:14:09.773Z,0.90
2023-01-04T10:22:25.002Z,0.70
2023-01-04T10:25:17.502Z,0.97
2023-01-04T10:27:51.596Z,1.00
2023-01-04T10:30:28.455Z,1.13
2023-01-04T10:33:11.612Z,1.00
2023-01-04T10:35:40.049Z,1.00
2023-01-04T10:38:18.627Z,1.00
2023-01-04T10:40:49.083Z,1.00
2023-01-04T10:43:23.072Z,1.03
2023-01-04T10:45:54.534Z,1.00
2023-01-04T10:48:40.883Z,1.60
2023-01-04T10:51:10.630Z,1.07
2023-01-04T10:53:39.719Z,1.50
2023-01-04T10:56:25.543Z,1.00
2023-01-04T10:58:57.759Z,1.03
2023-01-04T11:01:38.637Z,1.10
2023-01-04T11:04:09.160Z,1.20
2023-01-04T11:06:42.900Z,0.90
2023-01-04T11:09:24.863Z,1.07
2023-01-04T11:11:54.216Z,1.20
2023-01-04T11:14:21.905Z,1.17
2023-01-04T11:16:50.989Z,1.37
2023-01-04T11:19:18.657Z,0.90
2023-01-04T11:21:49.614Z,1.20
2023-01-04T11:24:33.773Z,1.30
2023-01-04T11:27:13.810Z,1.00
2023-01-04T11:29:43.254Z,1.10
2023-01-04T11:32:17.074Z,1.33
2023-01-04T11:34:52.052Z,1.10
2023-01-04T11:37:27.333Z,1.10
2023-01-04T11:40:13.703Z,1.00
2023-01-04T11:42:41.335Z,1.07
2023-01-04T11:45:26.103Z,0.97
2023-01-04T11:47:57.781Z,1.20
2023-01-04T11:50:37.759Z,1.13
2023-01-04T11:53:22.896Z,1.10
2023-01-04T11:55:51.020Z,1.23
2023-01-04T11:58:19.347Z,1.00
2023-01-04T12:00:57.197Z,1.20
2023-01-04T12:03:45.004Z,0.80
2023-01-04T12:06:16.446Z,1.00
2023-01-04T12:08:44.024Z,1.00
2023-01-04T12:11:24.991Z,1.10
2023-01-04T12:13:52.711Z,1.10
2023-01-04T12:16:20.267Z,0.90
2023-01-04T12:18:48.051Z,1.40
2023-01-04T12:21:20.574Z,0.80
2023-01-04T12:23:48.683Z,0.80
2023-01-04T12:26:17.144Z,1.00
2023-01-04T12:28:45.194Z,0.90
2023-01-04T12:31:21.800Z,0.77
2023-01-04T12:33:51.446Z,0.80
2023-01-04T12:36:42.466Z,1.03
2023-01-04T12:39:12.877Z,0.90
2023-01-04T12:41:40.589Z,1.20
2023-01-04T12:44:26.985Z,0.90
2023-01-04T12:46:54.599Z,0.90
2023-01-04T12:49:31.141Z,0.70
2023-01-04T12:54:59.871Z,0.80
2023-01-04T12:57:38.331Z,0.80
2023-01-04T13:00:13.338Z,0.80
2023-01-04T13:02:41.097Z,0.50
2023-01-04T13:08:11.563Z,0.90
2023-01-04T13:10:42.113Z,1.00
2023-01-04T13:13:09.746Z,0.70
2023-01-04T13:15:53.051Z,0.97
2023-01-04T13:18:20.678Z,0.80
2023-01-04T13:20:48.185Z,0.77
2023-01-04T13:23:15.859Z,0.60
2023-01-04T13:25:43.428Z,0.60
2023-01-04T13:28:17.404Z,0.63
2023-01-04T13:30:45.184Z,0.70
2023-01-04T13:33:26.668Z,0.63
2023-01-04T13:36:01.272Z,0.70
2023-01-04T13:38:28.975Z,0.80
2023-01-04T13:40:56.555Z,0.70
2023-01-04T13:43:33.079Z,0.70
2023-01-04T13:46:20.589Z,0.60
2023-01-04T13:49:09.004Z,0.70
2023-01-04T13:51:37.702Z,0.53
2023-01-04T13:54:07.623Z,0.70
2023-01-04T13:56:35.679Z,0.60
2023-01-04T13:59:03.327Z,0.60
2023-01-04T14:01:33.112Z,0.80
2023-01-04T14:04:05.177Z,0.60
2023-01-04T14:06:32.769Z,0.73
2023-01-04T14:09:05.426Z,0.60
2023-01-04T14:11:34.990Z,0.60
2023-01-04T14:14:04.929Z,0.70
2023-01-04T14:16:32.581Z,1.13
2023-01-04T14:19:20.042Z,0.70
2023-01-04T14:21:47.795Z,0.93
2023-01-04T14:27:30.526Z,0.70
2023-01-04T14:29:58.307Z,0.60
2023-01-04T14:32:34.036Z,0.77
2023-01-04T14:35:06.985Z,0.73
2023-01-04T14:37:37.441Z,0.80
2023-01-04T14:40:14.473Z,0.90
2023-01-04T14:42:42.071Z,0.90
2023-01-04T14:45:13.218Z,0.70
2023-01-04T14:47:40.997Z,0.70
2023-01-04T14:50:08.808Z,0.57
2023-01-04T14:52:36.407Z,0.50
2023-01-04T14:55:04.066Z,0.70
2023-01-04T14:57:33.026Z,0.60
2023-01-04T15:00:00.754Z,1.10
2023-01-04T15:02:28.586Z,0.70
2023-01-04T15:04:56.221Z,0.63
2023-01-04T15:07:44.071Z,0.67
2023-01-04T15:10:20.695Z,0.67
2023-01-04T15:12:48.274Z,0.70
2023-01-04T15:15:16.049Z,0.90
2023-01-04T15:17:43.752Z,0.50
2023-01-04T15:20:14.393Z,0.80
2023-01-04T15:22:42.104Z,0.80
2023-01-04T15:25:10.353Z,0.90
2023-01-04T15:27:42.191Z,1.63
2023-01-04T15:30:11.298Z,1.60
2023-01-04T15:32:39.016Z,1.00
2023-01-04T15:35:06.911Z,2.10
2023-01-04T15:37:34.478Z,2.67
2023-01-04T15:40:03.824Z,2.00
2023-01-04T15:42:31.753Z,1.20
2023-01-04T15:44:59.306Z,1.93
2023-01-04T15:47:29.332Z,1.63
2023-01-04T15:49:56.951Z,1.50
2023-01-04T15:52:24.525Z,1.27
2023-01-04T15:54:52.121Z,1.90
2023-01-04T15:57:19.645Z,1.67
2023-01-04T15:59:47.620Z,1.80
2023-01-04T16:02:15.380Z,1.50
2023-01-04T16:04:43.252Z,1.60
2023-01-04T16:07:10.779Z,1.67
2023-01-04T16:09:38.462Z,1.40
2023-01-04T16:12:06.295Z,1.83
2023-01-04T16:14:33.968Z,1.70
2023-01-04T16:17:04.150Z,1.50
2023-01-04T16:19:31.702Z,1.57
2023-01-04T16:21:59.438Z,1.30
2023-01-04T16:25:08.852Z,2.10
2023-01-04T16:27:14.693Z,1.83
2023-01-04T16:29:42.193Z,2.80
2023-01-04T16:32:09.753Z,1.60
2023-01-04T16:34:37.571Z,2.10
2023-01-04T16:37:05.904Z,1.83
2023-01-04T16:40:04.820Z,1.40
2023-01-04T16:42:21.367Z,1.60
2023-01-04T16:44:48.996Z,1.73
2023-01-04T16:47:16.783Z,1.37
2023-01-04T16:49:44.543Z,1.30
2023-01-04T16:52:13.459Z,1.13
2023-01-04T16:54:41.042Z,1.10
2023-01-04T16:57:08.663Z,1.20
2023-01-04T16:59:36.223Z,1.00
2023-01-04T17:02:03.930Z,1.00
2023-01-04T17:04:31.519Z,1.30
2023-01-04T17:06:59.094Z,1.40
2023-01-04T17:09:26.615Z,1.10
2023-01-04T17:14:41.896Z,1.30
2023-01-04T17:17:09.449Z,1.20
2023-01-04T17:19:37.029Z,1.30
2023-01-04T17:22:04.562Z,1.70
2023-01-04T17:24:32.193Z,1.50
2023-01-04T17:26:59.713Z,1.80
2023-01-04T17:29:27.367Z,1.60
2023-01-04T17:31:54.924Z,1.60
2023-01-04T17:34:23.464Z,1.40
2023-01-04T17:36:51.182Z,1.80
2023-01-04T17:39:18.768Z,2.03
2023-01-04T17:41:46.272Z,1.50
2023-01-04T17:44:13.902Z,2.30
2023-01-04T17:46:41.419Z,2.10
2023-01-04T17:49:22.217Z,2.23
2023-01-04T17:51:50.783Z,1.90
2023-01-04T17:54:18.322Z,2.80
2023-01-04T17:56:45.936Z,3.20
2023-01-04T17:59:13.504Z,3.17
2023-01-04T18:01:41.531Z,3.00
2023-01-04T18:04:09.266Z,2.43
2023-01-04T18:06:37.454Z,3.00
2023-01-04T18:09:06.438Z,3.33
2023-01-04T18:11:34.591Z,3.33
2023-01-04T18:14:05.909Z,4.13
2023-01-04T18:16:37.757Z,3.93
2023-01-04T18:19:05.373Z,3.63
2023-01-04T18:21:32.982Z,3.70
2023-01-04T18:24:34.653Z,3.80
2023-01-04T18:29:37.573Z,3.20
2023-01-04T18:32:05.298Z,4.03
2023-01-04T18:34:33.018Z,3.53
2023-01-04T18:37:00.544Z,3.67
2023-01-04T18:39:28.147Z,4.53
2023-01-04T18:41:55.694Z,3.93
2023-01-04T18:44:32.730Z,4.10
2023-01-04T18:47:01.988Z,4.63
2023-01-04T18:49:29.688Z,3.87
2023-01-04T18:51:57.362Z,4.40
2023-01-04T18:54:24.937Z,5.17
2023-01-04T18:57:00.675Z,4.90
2023-01-04T18:59:32.124Z,5.87
2023-01-04T19:01:59.989Z,4.53
2023-01-04T19:04:28.437Z,3.83
2023-01-04T19:06:56.123Z,3.93
2023-01-04T19:09:24.037Z,4.07
2023-01-04T19:11:51.628Z,4.07
2023-01-04T19:14:19.297Z,4.77
2023-01-04T19:16:47.027Z,5.93
2023-01-04T19:19:14.795Z,4.10
2023-01-04T19:21:42.472Z,5.57
2023-01-04T19:24:10.007Z,4.63
2023-01-04T19:26:37.589Z,4.57
2023-01-04T19:29:07.864Z,4.03
2023-01-04T19:31:35.510Z,5.13
2023-01-04T19:34:03.226Z,4.13
2023-01-04T19:36:30.954Z,4.03
2023-01-04T19:38:58.542Z,4.33
2023-01-04T19:41:33.056Z,4.60
2023-01-04T19:44:08.508Z,5.10
2023-01-04T19:46:37.695Z,4.10
2023-01-04T19:49:08.126Z,4.27
2023-01-04T19:51:40.259Z,4.70
2023-01-04T19:54:07.793Z,4.33
2023-01-04T19:56:35.333Z,5.13
2023-01-04T19:59:02.960Z,5.00
2023-01-04T20:01:30.622Z,3.93
2023-01-04T20:03:58.281Z,5.30
2023-01-04T20:06:25.826Z,6.27
2023-01-04T20:08:53.521Z,4.47
2023-01-04T20:11:21.140Z,5.27
2023-01-04T20:13:48.621Z,5.37
2023-01-04T20:16:16.361Z,5.33
2023-01-04T20:18:43.916Z,5.20
2023-01-04T20:21:12.456Z,6.07
2023-01-04T20:23:40.327Z,4.07
2023-01-04T20:26:11.428Z,5.43
2023-01-04T20:28:39.523Z,5.00
2023-01-04T20:31:08.523Z,4.10
2023-01-04T20:33:36.369Z,4.60
2023-01-04T20:36:07.858Z,4.37
2023-01-04T20:38:42.624Z,5.13
2023-01-04T20:41:12.139Z,4.60
2023-01-04T20:43:39.841Z,4.27
2023-01-04T20:46:11.960Z,3.97
2023-01-04T20:48:40.498Z,3.73
2023-01-04T20:51:08.878Z,4.53
2023-01-04T20:53:38.455Z,4.10
2023-01-04T20:56:10.177Z,3.80
2023-01-04T20:58:37.756Z,4.43
2023-01-04T21:01:06.240Z,4.63
2023-01-04T21:03:34.221Z,4.60
2023-01-04T21:06:02.978Z,4.57
2023-01-04T21:08:30.691Z,3.90
2023-01-04T21:10:58.594Z,4.10
2023-01-04T21:13:26.136Z,4.93
2023-01-04T21:15:53.812Z,4.07
2023-01-04T21:18:22.703Z,4.70
2023-01-04T21:20:50.211Z,4.57
2023-01-04T21:23:19.270Z,5.47
2023-01-04T21:25:46.885Z,3.83
2023-01-04T21:28:14.436Z,5.13
2023-01-04T21:30:43.048Z,4.33
2023-01-04T21:33:11.237Z,4.67
2023-01-04T21:35:39.452Z,4.23
2023-01-04T21:38:07.209Z,5.03
2023-01-04T21:40:35.266Z,5.17
2023-01-04T21:43:02.813Z,4.80
2023-01-04T21:45:30.454Z,4.73
2023-01-04T21:47:58.146Z,5.13
2023-01-04T21:50:25.674Z,4.03
2023-01-04T21:52:53.289Z,4.90
2023-01-04T21:55:20.788Z,4.13
2023-01-04T21:57:48.448Z,4.27
2023-01-04T22:00:15.988Z,4.80
2023-01-04T22:02:43.763Z,5.43
2023-01-04T22:05:11.392Z,5.10
2023-01-04T22:07:38.958Z,3.77
2023-01-04T22:10:06.594Z,3.90
2023-01-04T22:12:34.211Z,4.73
2023-01-04T22:15:01.705Z,4.43
2023-01-04T22:17:29.444Z,4.20
2023-01-04T22:19:57.237Z,4.77
2023-01-04T22:22:24.854Z,4.57
2023-01-04T22:24:52.403Z,3.87
2023-01-04T22:27:19.951Z,4.03
2023-01-04T22:29:47.484Z,3.97
2023-01-04T22:32:15.041Z,4.90
2023-01-04T22:34:42.617Z,5.07
2023-01-04T22:37:10.289Z,5.37
2023-01-04T22:39:37.890Z,4.83
2023-01-04T22:42:05.475Z,3.97
2023-01-04T22:44:32.982Z,4.03
2023-01-04T22:47:00.627Z,4.80
2023-01-04T22:49:28.131Z,4.50
2023-01-04T22:51:55.730Z,5.03
2023-01-04T22:54:23.345Z,3.80
2023-01-04T22:56:51.083Z,3.90
2023-01-04T22:59:18.670Z,4.27
2023-01-04T23:01:46.306Z,4.50
2023-01-04T23:04:16.069Z,4.97
2023-01-04T23:06:44.142Z,3.90
2023-01-04T23:09:13.946Z,4.40
2023-01-04T23:11:41.808Z,4.90
2023-01-04T23:14:11.962Z,3.70
2023-01-04T23:16:39.723Z,4.03
2023-01-04T23:19:07.867Z,4.53
2023-01-04T23:21:36.054Z,4.93
2023-01-04T23:24:04.101Z,3.80
2023-01-04T23:26:32.272Z,4.27
2023-01-04T23:29:00.836Z,4.37
2023-01-04T23:31:32.656Z,4.10
2023-01-04T23:34:03.562Z,4.50
2023-01-04T23:36:32.683Z,4.43
2023-01-04T23:39:02.766Z,4.40
2023-01-04T23:41:30.542Z,4.00
2023-01-04T23:43:58.075Z,4.83
2023-01-04T23:46:25.611Z,4.30
2023-01-04T23:48:53.121Z,4.83
2023-01-04T23:51:20.686Z,3.70
2023-01-04T23:53:48.163Z,4.27
2023-01-04T23:56:16.216Z,4.80
2023-01-04T23:58:43.704Z,4.60
